Terminal Aerodrome Forecast
Issued by NWS Binghamton, NY

Home | Current Version | Previous Version | Text Only | Print | Product List | Glossary On
Versions: 1 2 3 4 5 6 7 8 9 10 11 12 13 14 15 16 17
000
FTUS41 KBGM 040553
TAFBGM
TAF
KBGM 040553Z 0406/0506 VRB03KT P6SM OVC050
     FM040800 VRB03KT P6SM -SHRA SCT025 OVC035
      TEMPO 0408/0410 4SM -SHRA BR OVC025
     FM041000 VRB03KT P6SM -SHRA SCT008 OVC015
      TEMPO 0410/0414 3SM -SHRA BR OVC008
     FM041600 18008KT P6SM BKN035
     FM050000 VRB03KT P6SM FEW040=

USA.gov is the U.S. government's official web portal to all federal, state and local government web resources and services.